createdAt,value
2019-01-06T00:07:43.285Z,287.33
2019-01-06T00:10:28.946Z,193.47
2019-01-06T00:16:01.935Z,233.78
2019-01-06T00:21:34.906Z,236.77
2019-01-06T00:24:20.563Z,353.80
2019-01-06T00:27:06.223Z,258.70
2019-01-06T00:29:51.870Z,430.43
2019-01-06T00:43:09.913Z,38.35
2019-01-06T00:48:42.893Z,182.57
2019-01-06T00:54:22.507Z,78.40
2019-01-06T00:57:08.160Z,185.67
2019-01-06T00:59:53.838Z,305.73
2019-01-06T01:02:39.514Z,184.90
2019-01-06T01:05:25.169Z,237.45
2019-01-06T01:08:11.169Z,47.50
2019-01-06T01:10:56.940Z,84.13
2019-01-06T01:18:49.850Z,77.57
2019-01-06T01:21:55.533Z,43.67
2019-01-06T01:24:41.194Z,58.87
2019-01-06T01:27:26.844Z,114.50
2019-01-06T01:32:46.509Z,25.50
2019-01-06T01:35:32.162Z,232.40
2019-01-06T01:38:17.835Z,336.07
2019-01-06T01:41:03.478Z,134.18
2019-01-06T01:43:49.138Z,300.93
2019-01-06T01:49:22.087Z,357.97
2019-01-06T01:52:07.738Z,479.27
2019-01-06T01:54:53.406Z,271.95
2019-01-06T02:00:48.174Z,347.33
2019-01-06T02:03:33.805Z,362.67
2019-01-06T02:06:19.462Z,273.47
2019-01-06T02:16:59.936Z,366.80
2019-01-06T02:22:23.826Z,401.77
2019-01-06T02:25:09.487Z,376.07
2019-01-06T02:27:55.130Z,245.27
2019-01-06T02:30:40.792Z,288.00
2019-01-06T02:33:26.436Z,352.23
2019-01-06T02:36:12.095Z,547.40
2019-01-06T02:38:57.753Z,345.00
2019-01-06T02:41:43.416Z,304.63
2019-01-06T02:44:29.067Z,386.07
2019-01-06T02:49:53.004Z,484.30
2019-01-06T02:52:38.675Z,464.23
2019-01-06T02:55:24.330Z,422.05
2019-01-06T02:58:09.999Z,300.32
2019-01-06T03:00:55.660Z,364.93
2019-01-06T03:03:41.318Z,234.20
2019-01-06T03:06:26.992Z,331.05
2019-01-06T03:09:12.651Z,418.73
2019-01-06T03:11:58.319Z,392.00
2019-01-06T03:17:31.307Z,455.25
2019-01-06T03:20:16.964Z,316.50
2019-01-06T03:23:02.650Z,350.18
2019-01-06T03:28:35.603Z,301.37
2019-01-06T03:34:08.569Z,362.98
2019-01-06T03:36:54.216Z,230.22
2019-01-06T03:39:39.879Z,312.98
2019-01-06T03:42:25.536Z,356.85
2019-01-06T03:45:11.201Z,97.40
2019-01-06T03:47:56.850Z,186.03
2019-01-06T03:50:42.522Z,314.42
2019-01-06T03:53:28.167Z,142.22
2019-01-06T03:56:13.830Z,119.77
2019-01-06T04:04:20.486Z,248.57
2019-01-06T04:07:06.143Z,424.55
2019-01-06T04:09:51.804Z,647.00
2019-01-06T04:12:37.466Z,179.33
2019-01-06T04:15:23.231Z,91.97
2019-01-06T04:20:56.206Z,428.17
2019-01-06T04:27:08.927Z,516.35
2019-01-06T04:29:54.577Z,337.95
2019-01-06T04:32:40.243Z,121.28
2019-01-06T04:35:25.891Z,57.67
2019-01-06T04:38:11.581Z,106.17
2019-01-06T04:40:57.278Z,140.05
2019-01-06T04:43:42.926Z,264.23
2019-01-06T04:46:28.597Z,108.37
2019-01-06T04:49:14.240Z,371.02
2019-01-06T04:51:59.904Z,62.43
2019-01-06T04:54:45.546Z,70.97
2019-01-06T04:57:31.214Z,90.10
2019-01-06T05:00:16.864Z,76.30
2019-01-06T05:05:40.781Z,72.10
2019-01-06T05:08:26.441Z,120.77
2019-01-06T05:11:12.105Z,52.75
2019-01-06T05:13:57.774Z,35.47
2019-01-06T05:16:43.424Z,36.25
2019-01-06T05:19:29.083Z,435.93
2019-01-06T05:22:14.750Z,33.45
2019-01-06T05:25:00.416Z,351.98
2019-01-06T05:27:46.101Z,403.75
2019-01-06T05:33:19.114Z,78.15
2019-01-06T05:36:04.779Z,508.10
2019-01-06T05:38:50.438Z,162.00
2019-01-06T05:41:36.089Z,86.80
2019-01-06T05:46:55.420Z,495.10
2019-01-06T05:49:41.079Z,105.58
2019-01-06T05:55:14.055Z,91.97
2019-01-06T05:57:59.733Z,273.93
2019-01-06T06:00:45.429Z,191.85
2019-01-06T06:03:31.077Z,271.37
2019-01-06T06:06:16.834Z,251.90
2019-01-06T06:09:02.505Z,275.35
2019-01-06T06:11:48.178Z,221.87
2019-01-06T06:14:33.879Z,322.60
2019-01-06T06:17:19.533Z,340.68
2019-01-06T06:20:05.208Z,333.77
2019-01-06T06:22:50.861Z,110.45
2019-01-06T06:25:36.522Z,314.30
2019-01-06T06:28:22.178Z,257.57
2019-01-06T06:31:07.857Z,283.50
2019-01-06T06:33:53.503Z,224.30
2019-01-06T06:36:39.162Z,213.18
2019-01-06T06:39:46.602Z,213.50
2019-01-06T06:42:32.255Z,243.52
2019-01-06T06:45:17.923Z,227.28
2019-01-06T06:48:03.567Z,290.25
2019-01-06T06:53:23.063Z,294.07
2019-01-06T06:58:47.860Z,266.35
2019-01-06T07:04:32.802Z,309.83
2019-01-06T07:07:18.481Z,388.73
2019-01-06T07:10:04.134Z,289.27
2019-01-06T07:18:17.416Z,238.03
2019-01-06T07:21:03.161Z,332.43
2019-01-06T07:26:22.644Z,133.70
2019-01-06T07:29:08.305Z,79.03
2019-01-06T07:31:53.971Z,328.50
2019-01-06T07:34:39.643Z,120.90
2019-01-06T07:37:25.309Z,405.07
2019-01-06T07:42:58.271Z,96.37
2019-01-06T07:46:03.817Z,64.92
2019-01-06T07:48:49.468Z,103.20
2019-01-06T07:54:22.453Z,312.43
2019-01-06T07:57:08.102Z,135.63
2019-01-06T07:59:53.784Z,386.43
2019-01-06T08:05:26.738Z,222.87
2019-01-06T08:08:12.402Z,221.57
2019-01-06T08:10:58.059Z,72.50
2019-01-06T08:13:43.729Z,106.03
2019-01-06T08:16:29.397Z,76.67
2019-01-06T08:21:48.746Z,88.50
2019-01-06T08:24:34.406Z,52.33
2019-01-06T08:27:20.054Z,53.63
2019-01-06T08:30:05.715Z,51.87
2019-01-06T08:41:10.753Z,66.77
2019-01-06T08:46:43.719Z,362.93
2019-01-06T08:49:29.386Z,93.47
2019-01-06T08:55:02.415Z,69.93
2019-01-06T08:57:48.114Z,53.40
2019-01-06T09:00:33.773Z,104.57
2019-01-06T09:03:19.425Z,66.13
2019-01-06T09:06:05.079Z,54.40
2019-01-06T09:08:50.752Z,71.87
2019-01-06T09:11:36.418Z,71.00
2019-01-06T09:14:22.090Z,57.67
2019-01-06T09:17:07.775Z,297.17
2019-01-06T09:25:14.267Z,236.13
2019-01-06T09:27:59.945Z,196.17
2019-01-06T09:30:45.636Z,135.20
2019-01-06T09:38:52.383Z,221.83
2019-01-06T09:44:16.269Z,50.53
2019-01-06T09:47:01.942Z,56.40
2019-01-06T09:55:08.772Z,160.37
2019-01-06T09:57:54.431Z,160.77
2019-01-06T10:00:40.117Z,54.73
2019-01-06T10:03:25.772Z,53.73
2019-01-06T10:08:58.738Z,147.53
2019-01-06T10:11:44.389Z,73.27
2019-01-06T10:14:30.069Z,49.73
2019-01-06T10:17:15.815Z,50.70
2019-01-06T10:20:01.452Z,86.30
2019-01-06T10:22:47.114Z,97.47
2019-01-06T10:25:32.806Z,102.07
2019-01-06T10:30:52.313Z,79.20
2019-01-06T10:36:16.162Z,59.97
2019-01-06T10:39:01.848Z,71.40
2019-01-06T10:44:54.703Z,70.47
2019-01-06T10:47:40.358Z,59.80
2019-01-06T10:53:39.838Z,53.93
2019-01-06T10:56:25.481Z,54.70
2019-01-06T11:01:44.752Z,55.20
2019-01-06T11:04:30.414Z,64.03
2019-01-06T11:10:03.389Z,30.67
2019-01-06T11:12:49.045Z,60.97
2019-01-06T11:15:34.704Z,46.93
2019-01-06T11:18:20.348Z,31.00
2019-01-06T11:26:13.459Z,39.40
2019-01-06T11:28:59.222Z,27.87
2019-01-06T11:31:44.880Z,27.50
2019-01-06T11:34:30.533Z,22.60
2019-01-06T11:37:16.199Z,31.03
2019-01-06T11:42:49.214Z,30.20
2019-01-06T11:45:34.855Z,24.23
2019-01-06T11:48:20.531Z,32.67
2019-01-06T11:51:06.304Z,27.63
2019-01-06T11:56:39.266Z,43.00
2019-01-06T11:59:24.933Z,41.27
2019-01-06T12:04:44.381Z,40.20
2019-01-06T12:07:30.046Z,48.17
2019-01-06T12:13:03.041Z,53.57
2019-01-06T12:15:48.685Z,40.80
2019-01-06T12:18:34.367Z,60.80
2019-01-06T12:21:20.064Z,33.50
2019-01-06T12:26:53.275Z,65.93
2019-01-06T12:32:26.236Z,79.93
2019-01-06T12:35:11.899Z,61.70
2019-01-06T12:37:57.802Z,61.23
2019-01-06T12:40:43.547Z,79.27
2019-01-06T12:46:02.723Z,60.17
2019-01-06T12:51:22.207Z,68.57
2019-01-06T12:54:07.937Z,42.37
2019-01-06T12:56:53.593Z,45.50
2019-01-06T13:02:17.653Z,43.20
2019-01-06T13:05:03.339Z,59.90
2019-01-06T13:07:49.025Z,82.53
2019-01-06T13:10:34.742Z,54.87
2019-01-06T13:13:20.560Z,35.07
2019-01-06T13:18:53.517Z,47.37
2019-01-06T13:21:39.300Z,57.60
2019-01-06T13:24:24.958Z,53.07
2019-01-06T13:27:10.613Z,39.33
2019-01-06T13:29:56.290Z,62.70
2019-01-06T13:32:41.940Z,33.80
2019-01-06T13:35:27.599Z,48.23
2019-01-06T13:41:03.106Z,35.43
2019-01-06T13:46:42.735Z,37.47
2019-01-06T13:49:28.458Z,26.60
2019-01-06T13:52:14.096Z,31.57
2019-01-06T13:54:59.755Z,30.87
2019-01-06T14:00:32.706Z,41.63
2019-01-06T14:06:05.709Z,37.50
2019-01-06T14:08:51.391Z,38.10
2019-01-06T14:14:15.566Z,33.70
2019-01-06T14:17:01.228Z,39.63
2019-01-06T14:19:46.885Z,27.10
2019-01-06T14:25:19.870Z,39.70
2019-01-06T14:28:05.525Z,41.27
2019-01-06T14:30:51.195Z,33.10
2019-01-06T14:33:36.860Z,45.73
2019-01-06T14:36:22.513Z,30.30
2019-01-06T14:39:10.850Z,29.30
2019-01-06T14:41:55.757Z,33.70
2019-01-06T14:44:41.402Z,30.97
2019-01-06T14:50:01.026Z,30.70
2019-01-06T14:55:20.493Z,34.60
2019-01-06T14:58:06.301Z,27.97
2019-01-06T15:00:51.943Z,28.47
2019-01-06T15:03:37.621Z,22.47
2019-01-06T15:06:23.296Z,15.60
2019-01-06T15:11:56.277Z,12.17
2019-01-06T15:14:41.946Z,13.63
2019-01-06T15:17:27.639Z,8.80
2019-01-06T15:20:13.280Z,7.53
2019-01-06T15:22:58.942Z,5.77
2019-01-06T15:25:44.600Z,8.57
2019-01-06T15:28:30.419Z,9.23
2019-01-06T15:31:16.062Z,6.93
2019-01-06T15:34:01.747Z,6.37
2019-01-06T15:36:47.418Z,5.70
2019-01-06T15:39:33.088Z,4.30
2019-01-06T15:45:06.056Z,4.90
2019-01-06T15:50:29.907Z,7.17
2019-01-06T15:53:15.588Z,10.20
2019-01-06T15:56:01.234Z,7.67
2019-01-06T16:01:25.149Z,8.00
2019-01-06T16:09:18.290Z,9.70
2019-01-06T16:12:03.931Z,7.73
2019-01-06T16:17:23.206Z,9.30
2019-01-06T16:20:08.890Z,7.83
2019-01-06T16:25:41.857Z,7.93
2019-01-06T16:28:27.498Z,10.60
2019-01-06T16:36:20.658Z,10.00
2019-01-06T16:41:53.620Z,17.27
2019-01-06T16:44:39.290Z,8.77
2019-01-06T16:47:24.920Z,9.50
2019-01-06T16:50:10.575Z,9.07
2019-01-06T16:55:43.562Z,12.17
2019-01-06T16:58:29.209Z,11.20
2019-01-06T17:01:14.876Z,16.63
2019-01-06T17:04:00.724Z,14.60
2019-01-06T17:09:46.403Z,12.27
2019-01-06T17:12:32.059Z,17.93
2019-01-06T17:15:17.730Z,14.00
2019-01-06T17:18:03.370Z,16.23
2019-01-06T17:20:49.020Z,14.63
2019-01-06T17:23:34.690Z,13.77
2019-01-06T17:34:01.685Z,13.50
2019-01-06T17:36:47.349Z,15.37
2019-01-06T17:39:32.990Z,14.43
2019-01-06T17:42:18.664Z,17.87
2019-01-06T17:45:04.334Z,13.67
2019-01-06T17:47:50.016Z,17.73
2019-01-06T17:50:35.663Z,16.07
2019-01-06T17:53:21.332Z,16.27
2019-01-06T17:56:06.980Z,20.87
2019-01-06T17:58:52.639Z,19.63
2019-01-06T18:01:38.300Z,14.83
2019-01-06T18:04:23.943Z,15.60
2019-01-06T18:07:09.641Z,16.50
2019-01-06T18:09:55.281Z,14.80
2019-01-06T18:12:40.938Z,15.47
2019-01-06T18:15:48.387Z,18.53
2019-01-06T18:18:34.065Z,23.37
2019-01-06T18:21:19.734Z,15.93
2019-01-06T18:29:17.084Z,16.37
2019-01-06T18:32:02.725Z,22.33
2019-01-06T18:37:22.191Z,15.67
2019-01-06T18:40:07.841Z,19.10
2019-01-06T18:42:53.483Z,19.50
2019-01-06T18:45:39.143Z,14.20
2019-01-06T18:48:24.870Z,21.07
2019-01-06T18:59:10.065Z,23.37
2019-01-06T19:01:59.305Z,20.97
2019-01-06T19:04:43.300Z,18.70
2019-01-06T19:10:16.282Z,16.13
2019-01-06T19:16:05.222Z,15.97
2019-01-06T19:21:38.339Z,23.43
2019-01-06T19:24:24.000Z,19.20
2019-01-06T19:29:48.177Z,14.10
2019-01-06T19:32:33.838Z,21.40
2019-01-06T19:35:19.598Z,19.57
2019-01-06T19:38:05.255Z,16.80
2019-01-06T19:40:50.911Z,17.90
2019-01-06T19:43:36.578Z,16.00
2019-01-06T19:46:22.219Z,20.47
2019-01-06T19:49:07.864Z,18.53
2019-01-06T19:51:53.516Z,22.70
2019-01-06T19:57:26.481Z,22.57
2019-01-06T20:00:12.131Z,18.87
2019-01-06T20:06:11.645Z,23.50
2019-01-06T20:08:57.333Z,20.73
2019-01-06T20:11:42.974Z,23.87
2019-01-06T20:17:02.695Z,17.90
2019-01-06T20:22:22.119Z,24.53
2019-01-06T20:25:07.778Z,21.43
2019-01-06T20:27:53.473Z,21.60
2019-01-06T20:30:39.118Z,20.30
2019-01-06T20:33:24.909Z,23.90
2019-01-06T20:36:10.574Z,25.50
2019-01-06T20:41:30.035Z,26.60
2019-01-06T20:44:15.693Z,24.33
2019-01-06T20:47:01.358Z,22.13
2019-01-06T20:49:47.265Z,25.77
2019-01-06T20:52:33.040Z,21.20
2019-01-06T20:55:18.703Z,24.73
2019-01-06T20:58:04.388Z,17.10
2019-01-06T21:03:28.263Z,23.63
2019-01-06T21:06:13.917Z,20.93
2019-01-06T21:08:59.587Z,24.57
2019-01-06T21:11:45.301Z,22.20
2019-01-06T21:14:30.999Z,21.30
2019-01-06T21:17:16.657Z,20.37
2019-01-06T21:20:02.317Z,22.03
2019-01-06T21:22:47.981Z,24.87
2019-01-06T21:25:33.665Z,21.70
2019-01-06T21:28:19.315Z,20.13
2019-01-06T21:36:12.987Z,25.67
2019-01-06T21:38:58.637Z,20.33
2019-01-06T21:41:44.358Z,26.60
2019-01-06T21:44:30.369Z,25.37
2019-01-06T21:47:16.076Z,24.63
2019-01-06T21:55:28.650Z,24.87
2019-01-06T22:00:48.414Z,21.93
2019-01-06T22:06:08.307Z,19.10
2019-01-06T22:08:53.957Z,19.63
2019-01-06T22:11:39.601Z,21.67
2019-01-06T22:14:25.288Z,22.50
2019-01-06T22:17:10.961Z,17.27
2019-01-06T22:19:56.608Z,24.77
2019-01-06T22:22:42.279Z,21.37
2019-01-06T22:25:49.741Z,19.87
2019-01-06T22:28:44.084Z,23.53
2019-01-06T22:34:17.101Z,15.87
2019-01-06T22:37:02.863Z,21.90
2019-01-06T22:39:48.813Z,19.70
2019-01-06T22:42:34.492Z,22.87
2019-01-06T22:45:20.273Z,15.90
2019-01-06T22:48:05.959Z,21.87
2019-01-06T22:50:51.609Z,21.17
2019-01-06T22:53:37.278Z,19.60
2019-01-06T22:56:22.919Z,24.07
2019-01-06T22:59:08.581Z,21.00
2019-01-06T23:01:54.232Z,17.50
2019-01-06T23:04:39.896Z,17.87
2019-01-06T23:07:25.569Z,22.43
2019-01-06T23:10:11.245Z,19.17
2019-01-06T23:15:44.241Z,19.27
2019-01-06T23:18:29.913Z,16.50
2019-01-06T23:21:15.573Z,20.23
2019-01-06T23:24:01.224Z,17.60
2019-01-06T23:26:46.906Z,20.50
2019-01-06T23:29:32.582Z,19.90
2019-01-06T23:35:05.546Z,20.83
2019-01-06T23:37:51.187Z,14.57
2019-01-06T23:43:10.333Z,16.53
2019-01-06T23:48:34.145Z,23.13
2019-01-06T23:53:58.130Z,16.57
2019-01-06T23:56:43.793Z,24.47
2019-01-06T23:59:29.447Z,24.23
